createdAt,value
2022-08-07T00:01:12.629Z,22.33
2022-08-07T00:03:55.168Z,22.33
2022-08-07T00:06:32.948Z,22.32
2022-08-07T00:09:16.124Z,22.35
2022-08-07T00:11:54.447Z,22.40
2022-08-07T00:14:25.309Z,22.51
2022-08-07T00:16:52.895Z,22.54
2022-08-07T00:19:21.780Z,22.55
2022-08-07T00:21:57.203Z,22.53
2022-08-07T00:24:31.692Z,22.51
2022-08-07T00:27:07.592Z,22.54
2022-08-07T00:29:37.116Z,22.56
2022-08-07T00:32:06.853Z,22.56
2022-08-07T00:34:35.562Z,22.56
2022-08-07T00:37:04.895Z,22.55
2022-08-07T00:39:33.157Z,22.57
2022-08-07T00:42:01.813Z,22.58
2022-08-07T00:44:33.422Z,22.61
2022-08-07T00:47:06.476Z,22.62
2022-08-07T00:50:19.370Z,22.66
2022-08-07T00:52:30.096Z,22.70
2022-08-07T00:55:04.695Z,22.69
2022-08-07T00:57:37.884Z,22.68
2022-08-07T01:00:22.714Z,22.63
2022-08-07T01:02:51.530Z,22.58
2022-08-07T01:05:20.371Z,22.55
2022-08-07T01:07:51.663Z,22.51
2022-08-07T01:10:18.871Z,22.51
2022-08-07T01:12:54.068Z,22.49
2022-08-07T01:16:00.818Z,22.40
2022-08-07T01:18:10.628Z,22.28
2022-08-07T01:20:45.476Z,22.19
2022-08-07T01:23:38.065Z,22.13
2022-08-07T01:26:12.027Z,22.06
2022-08-07T01:28:41.627Z,21.96
2022-08-07T01:31:15.542Z,22.10
2022-08-07T01:33:56.355Z,22.22
2022-08-07T01:36:33.739Z,22.24
2022-08-07T01:39:01.400Z,22.26
2022-08-07T01:41:32.557Z,22.22
2022-08-07T01:43:59.696Z,22.13
2022-08-07T01:46:28.705Z,22.08
2022-08-07T01:48:59.838Z,22.03
2022-08-07T01:52:04.109Z,22.06
2022-08-07T01:54:32.563Z,22.08
2022-08-07T01:57:08.421Z,22.07
2022-08-07T01:59:52.260Z,22.08
2022-08-07T02:02:32.654Z,22.05
2022-08-07T02:05:43.065Z,22.02
2022-08-07T02:08:13.903Z,22.00
2022-08-07T02:10:43.824Z,22.02
2022-08-07T02:13:17.283Z,22.00
2022-08-07T02:15:46.045Z,21.93
2022-08-07T02:18:14.399Z,21.93
2022-08-07T02:20:48.635Z,21.92
2022-08-07T02:23:23.929Z,21.81
2022-08-07T02:26:30.437Z,21.80
2022-08-07T02:28:41.216Z,21.81
2022-08-07T02:31:10.194Z,21.79
2022-08-07T02:34:03.113Z,21.77
2022-08-07T02:36:33.700Z,21.75
2022-08-07T02:39:16.451Z,21.73
2022-08-07T02:41:54.828Z,21.68
2022-08-07T02:44:27.569Z,21.66
2022-08-07T02:47:02.647Z,21.62
2022-08-07T02:49:58.381Z,21.59
2022-08-07T02:52:26.441Z,21.61
2022-08-07T02:55:03.867Z,21.54
2022-08-07T02:57:34.104Z,21.56
2022-08-07T03:00:05.154Z,21.56
2022-08-07T03:02:42.033Z,21.51
2022-08-07T03:05:23.269Z,21.37
2022-08-07T03:08:04.783Z,21.29
2022-08-07T03:10:36.250Z,21.19
2022-08-07T03:13:08.986Z,21.19
2022-08-07T03:15:47.931Z,21.17
2022-08-07T03:18:24.440Z,21.10
2022-08-07T03:21:01.819Z,21.08
2022-08-07T03:23:34.017Z,21.08
2022-08-07T03:26:23.603Z,20.97
2022-08-07T03:28:51.667Z,21.07
2022-08-07T03:31:24.551Z,21.07
2022-08-07T03:33:56.252Z,21.10
2022-08-07T03:36:25.912Z,21.13
2022-08-07T03:38:57.818Z,21.11
2022-08-07T03:44:15.484Z,21.23
2022-08-07T03:47:11.367Z,21.29
2022-08-07T03:49:30.864Z,21.38
2022-08-07T03:52:01.475Z,21.48
2022-08-07T03:54:35.252Z,21.59
2022-08-07T03:58:35.121Z,21.68
2022-08-07T04:00:05.357Z,21.70
2022-08-07T04:02:33.385Z,21.73
2022-08-07T04:05:00.528Z,21.73
2022-08-07T04:07:41.632Z,21.72
2022-08-07T04:10:15.781Z,21.78
2022-08-07T04:12:47.489Z,21.79
2022-08-07T04:15:16.115Z,21.83
2022-08-07T04:18:58.618Z,21.89
2022-08-07T04:20:32.394Z,21.99
2022-08-07T04:23:06.625Z,22.06
2022-08-07T04:25:39.362Z,22.15
2022-08-07T04:28:09.202Z,22.23
2022-08-07T04:30:55.227Z,22.26
2022-08-07T04:33:25.363Z,22.53
2022-08-07T04:35:54.233Z,22.66
2022-08-07T04:38:22.237Z,22.77
2022-08-07T04:40:52.701Z,22.89
2022-08-07T04:43:53.510Z,23.01
2022-08-07T04:46:29.267Z,23.16
2022-08-07T04:49:24.748Z,23.32
2022-08-07T04:52:13.945Z,23.43
2022-08-07T04:54:40.845Z,23.61
2022-08-07T04:58:15.072Z,23.75
2022-08-07T05:00:14.256Z,23.84
2022-08-07T05:02:48.198Z,24.00
2022-08-07T05:05:52.562Z,24.13
2022-08-07T05:08:59.424Z,24.27
2022-08-07T05:11:57.230Z,24.43
2022-08-07T05:14:52.508Z,24.51
2022-08-07T05:17:15.957Z,24.56
2022-08-07T05:19:49.875Z,24.71
2022-08-07T05:22:27.598Z,24.73
2022-08-07T05:24:56.470Z,24.71
2022-08-07T05:28:16.086Z,24.75
2022-08-07T05:30:12.737Z,24.75
2022-08-07T05:32:42.147Z,24.70
2022-08-07T05:35:12.133Z,24.67
2022-08-07T05:37:42.312Z,24.65
2022-08-07T05:40:18.334Z,24.58
2022-08-07T05:42:56.149Z,24.59
2022-08-07T05:45:46.338Z,24.60
2022-08-07T05:48:12.429Z,24.63
2022-08-07T05:50:42.752Z,24.71
2022-08-07T05:54:13.486Z,24.79
2022-08-07T05:56:03.419Z,24.93
2022-08-07T05:58:36.542Z,25.03
2022-08-07T06:01:05.925Z,25.10
2022-08-07T06:03:53.252Z,25.08
2022-08-07T06:06:31.320Z,25.14
2022-08-07T06:09:00.214Z,25.19
2022-08-07T06:11:28.292Z,25.24
2022-08-07T06:14:13.785Z,25.24
2022-08-07T06:16:50.365Z,25.53
2022-08-07T06:19:47.454Z,25.62
2022-08-07T06:22:15.515Z,25.65
2022-08-07T06:24:56.815Z,25.89
2022-08-07T06:28:00.098Z,26.01
2022-08-07T06:30:35.224Z,26.08
2022-08-07T06:33:00.871Z,26.04
2022-08-07T06:35:39.132Z,26.14
2022-08-07T06:38:20.394Z,26.17
2022-08-07T06:40:51.990Z,26.24
2022-08-07T06:43:22.662Z,26.38
2022-08-07T06:45:51.671Z,26.40
2022-08-07T06:48:25.117Z,26.28
2022-08-07T06:50:55.034Z,26.16
2022-08-07T06:55:28.186Z,26.10
2022-08-07T06:56:15.261Z,26.09
2022-08-07T07:00:12.237Z,26.08
2022-08-07T07:01:43.988Z,25.94
2022-08-07T07:04:32.327Z,25.86
2022-08-07T07:07:02.360Z,25.80
2022-08-07T07:09:37.376Z,25.67
2022-08-07T07:12:09.587Z,25.66
2022-08-07T07:14:49.895Z,25.80
2022-08-07T07:17:38.925Z,25.93
2022-08-07T07:20:15.233Z,26.00
2022-08-07T07:24:06.088Z,25.89
2022-08-07T07:26:33.376Z,26.11
2022-08-07T07:28:42.176Z,26.26
2022-08-07T07:31:24.177Z,26.44
2022-08-07T07:33:57.128Z,26.63
2022-08-07T07:36:29.629Z,26.79
2022-08-07T07:39:02.686Z,26.77
2022-08-07T07:41:50.829Z,26.81
2022-08-07T07:44:26.158Z,26.79
2022-08-07T07:47:04.406Z,26.82
2022-08-07T07:50:33.643Z,26.80
2022-08-07T07:52:30.909Z,26.68
2022-08-07T07:54:59.973Z,26.66
2022-08-07T07:57:43.926Z,26.59
2022-08-07T08:00:28.931Z,26.80
2022-08-07T08:03:05.443Z,27.09
2022-08-07T08:05:54.527Z,27.36
2022-08-07T08:08:35.015Z,27.38
2022-08-07T08:11:13.516Z,27.55
2022-08-07T08:13:54.294Z,27.67
2022-08-07T08:16:29.933Z,27.88
2022-08-07T08:20:17.081Z,28.09
2022-08-07T08:22:07.910Z,28.16
2022-08-07T08:24:44.933Z,28.22
2022-08-07T08:27:16.579Z,28.26
2022-08-07T08:29:55.771Z,28.30
2022-08-07T08:32:39.285Z,28.32
2022-08-07T08:35:11.051Z,28.24
2022-08-07T08:38:00.275Z,28.17
2022-08-07T08:40:37.883Z,27.99
2022-08-07T08:43:19.109Z,27.86
2022-08-07T08:46:50.413Z,27.82
2022-08-07T08:49:33.116Z,27.73
2022-08-07T08:52:24.502Z,27.70
2022-08-07T08:55:20.752Z,27.56
2022-08-07T08:58:08.542Z,27.55
2022-08-07T09:00:52.623Z,27.64
2022-08-07T09:03:49.820Z,27.75
2022-08-07T09:06:48.083Z,27.91
2022-08-07T09:09:30.222Z,27.95
2022-08-07T09:12:30.813Z,28.19
2022-08-07T09:16:24.118Z,28.33
2022-08-07T09:18:33.718Z,28.46
2022-08-07T09:21:34.164Z,28.59
2022-08-07T09:24:32.815Z,28.73
2022-08-07T09:27:30.191Z,28.74
2022-08-07T09:30:08.253Z,28.71
2022-08-07T09:33:24.131Z,28.79
2022-08-07T09:36:09.660Z,28.91
2022-08-07T09:38:36.511Z,29.00
2022-08-07T09:41:24.112Z,29.04
2022-08-07T09:44:19.992Z,29.09
2022-08-07T09:47:57.829Z,29.07
2022-08-07T09:50:53.341Z,29.00
2022-08-07T09:53:22.661Z,28.98
2022-08-07T09:56:34.018Z,28.95
2022-08-07T10:00:01.657Z,29.16
2022-08-07T10:02:55.331Z,29.40
2022-08-07T10:05:59.739Z,29.53
2022-08-07T10:08:40.404Z,29.64
2022-08-07T10:11:16.851Z,29.74
2022-08-07T10:14:04.986Z,29.84
2022-08-07T10:17:01.229Z,30.02
2022-08-07T10:20:00.320Z,30.07
2022-08-07T10:22:45.762Z,30.12
2022-08-07T10:25:42.387Z,30.10
2022-08-07T10:28:32.084Z,30.13
2022-08-07T10:31:11.491Z,30.30
2022-08-07T10:34:05.888Z,30.29
2022-08-07T10:37:04.062Z,30.34
2022-08-07T10:40:13.347Z,30.33
2022-08-07T10:42:54.345Z,30.41
2022-08-07T10:45:44.610Z,30.50
2022-08-07T10:48:44.775Z,30.60
2022-08-07T10:51:57.299Z,30.63
2022-08-07T10:54:29.952Z,30.56
2022-08-07T10:57:15.701Z,30.39
2022-08-07T10:59:57.826Z,30.36
2022-08-07T11:02:49.195Z,30.30
2022-08-07T11:05:19.262Z,30.20
2022-08-07T11:07:59.422Z,30.13
2022-08-07T11:10:55.403Z,30.03
2022-08-07T11:14:41.867Z,30.02
2022-08-07T11:16:52.740Z,30.01
2022-08-07T11:19:35.508Z,30.03
2022-08-07T11:22:05.266Z,30.07
2022-08-07T11:24:53.713Z,30.15
2022-08-07T11:28:02.697Z,30.16
2022-08-07T11:30:53.550Z,30.21
2022-08-07T11:33:59.770Z,30.22
2022-08-07T11:36:56.481Z,30.21
2022-08-07T11:40:00.244Z,30.09
2022-08-07T11:43:06.277Z,30.03
2022-08-07T11:46:12.200Z,30.06
2022-08-07T11:49:51.068Z,29.92
2022-08-07T11:52:01.245Z,29.87
2022-08-07T11:54:35.106Z,29.84
2022-08-07T11:58:00.402Z,29.96
2022-08-07T12:00:28.516Z,30.04
2022-08-07T12:03:01.283Z,30.18
2022-08-07T12:05:49.582Z,30.24
2022-08-07T12:08:25.755Z,30.24
2022-08-07T12:11:22.555Z,30.18
2022-08-07T12:14:08.247Z,30.06
2022-08-07T12:16:45.161Z,30.04
2022-08-07T12:20:02.781Z,30.11
2022-08-07T12:22:47.350Z,30.06
2022-08-07T12:26:05.559Z,29.99
2022-08-07T12:29:11.871Z,30.06
2022-08-07T12:32:03.980Z,30.26
2022-08-07T12:34:38.760Z,30.36
2022-08-07T12:37:08.751Z,30.50
2022-08-07T12:39:50.973Z,30.46
2022-08-07T12:42:27.643Z,30.36
2022-08-07T12:44:58.237Z,30.35
2022-08-07T12:47:49.289Z,30.36
2022-08-07T12:50:49.671Z,30.40
2022-08-07T12:53:29.428Z,30.51
2022-08-07T12:56:26.888Z,30.59
2022-08-07T12:58:58.094Z,30.60
2022-08-07T13:01:26.529Z,30.61
2022-08-07T13:04:48.983Z,30.58
2022-08-07T13:08:12.181Z,30.63
2022-08-07T13:11:14.147Z,30.62
2022-08-07T13:13:58.300Z,30.56
2022-08-07T13:16:29.975Z,30.56
2022-08-07T13:19:45.594Z,30.66
2022-08-07T13:22:28.072Z,30.75
2022-08-07T13:25:02.409Z,30.76
2022-08-07T13:28:11.258Z,30.66
2022-08-07T13:30:40.264Z,30.59
2022-08-07T13:34:31.669Z,30.52
2022-08-07T13:36:19.395Z,30.46
2022-08-07T13:39:03.083Z,30.47
2022-08-07T13:41:47.332Z,30.73
2022-08-07T13:44:25.860Z,30.76
2022-08-07T13:46:57.296Z,30.33
2022-08-07T13:50:35.897Z,30.02
2022-08-07T13:52:30.580Z,29.51
2022-08-07T13:55:06.950Z,29.03
2022-08-07T13:57:38.564Z,28.65
2022-08-07T14:00:07.911Z,28.38
2022-08-07T14:02:49.312Z,28.13
2022-08-07T14:05:22.301Z,27.79
2022-08-07T14:08:00.027Z,27.58
2022-08-07T14:10:42.024Z,27.43
2022-08-07T14:13:14.383Z,27.33
2022-08-07T14:15:50.647Z,27.21
2022-08-07T14:18:28.675Z,27.17
2022-08-07T14:22:41.159Z,26.99
2022-08-07T14:24:02.078Z,26.74
2022-08-07T14:26:50.598Z,26.56
2022-08-07T14:30:05.269Z,26.23
2022-08-07T14:32:26.687Z,25.84
2022-08-07T14:34:54.766Z,25.67
2022-08-07T14:37:23.640Z,25.49
2022-08-07T14:40:18.150Z,25.35
2022-08-07T14:45:56.514Z,25.12
2022-08-07T14:48:29.093Z,25.03
2022-08-07T14:51:05.446Z,24.95
2022-08-07T14:54:08.780Z,24.89
2022-08-07T14:56:30.011Z,24.90
2022-08-07T14:59:02.225Z,24.94
2022-08-07T15:01:42.846Z,25.00
2022-08-07T15:04:21.435Z,25.12
2022-08-07T15:06:53.514Z,25.21
2022-08-07T15:09:57.224Z,25.38
2022-08-07T15:12:34.859Z,25.53
2022-08-07T15:15:21.178Z,25.66
2022-08-07T15:17:58.543Z,25.82
2022-08-07T15:20:54.653Z,25.93
2022-08-07T15:25:03.055Z,26.04
2022-08-07T15:26:20.829Z,26.14
2022-08-07T15:28:59.586Z,26.19
2022-08-07T15:32:01.396Z,26.26
2022-08-07T15:34:37.976Z,26.37
2022-08-07T15:40:16.026Z,26.45
2022-08-07T15:43:52.895Z,26.47
2022-08-07T15:46:06.944Z,26.45
2022-08-07T15:49:11.907Z,26.44
2022-08-07T15:54:39.590Z,26.42
2022-08-07T15:57:10.803Z,26.40
2022-08-07T15:59:59.315Z,26.41
2022-08-07T16:02:29.338Z,26.42
2022-08-07T16:05:15.553Z,26.44
2022-08-07T16:08:30.620Z,26.42
2022-08-07T16:10:35.742Z,26.38
2022-08-07T16:13:59.128Z,26.34
2022-08-07T16:16:47.987Z,26.28
2022-08-07T16:19:42.034Z,26.23
2022-08-07T16:22:37.713Z,26.16
2022-08-07T16:25:52.622Z,26.13
2022-08-07T16:30:06.066Z,26.13
2022-08-07T16:32:00.680Z,26.14
2022-08-07T16:34:40.298Z,26.11
2022-08-07T16:38:05.477Z,26.09
2022-08-07T16:40:30.844Z,26.15
2022-08-07T16:43:15.117Z,26.11
2022-08-07T16:46:40.620Z,26.05
2022-08-07T16:50:20.740Z,25.96
2022-08-07T16:52:57.350Z,25.89
2022-08-07T16:55:47.251Z,25.80
2022-08-07T16:58:54.409Z,25.75
2022-08-07T17:01:22.971Z,25.69
2022-08-07T17:04:00.237Z,25.64
2022-08-07T17:07:02.965Z,25.60
2022-08-07T17:10:06.161Z,25.56
2022-08-07T17:12:35.815Z,25.46
2022-08-07T17:15:11.619Z,25.37
2022-08-07T17:18:02.698Z,25.35
2022-08-07T17:20:37.745Z,25.31
2022-08-07T17:23:32.453Z,25.25
2022-08-07T17:26:30.619Z,25.17
2022-08-07T17:28:59.057Z,25.16
2022-08-07T17:31:44.191Z,25.15
2022-08-07T17:34:47.052Z,25.08
2022-08-07T17:38:05.942Z,24.99
2022-08-07T17:40:30.480Z,24.94
2022-08-07T17:43:14.880Z,24.85
2022-08-07T17:45:58.526Z,24.83
2022-08-07T17:48:33.776Z,24.75
2022-08-07T17:51:07.845Z,24.71
2022-08-07T17:54:01.667Z,24.62
2022-08-07T17:56:49.425Z,24.60
2022-08-07T17:59:25.592Z,24.60
2022-08-07T18:02:13.347Z,24.57
2022-08-07T18:05:10.547Z,24.55
2022-08-07T18:08:03.422Z,24.52
2022-08-07T18:12:07.562Z,24.51
2022-08-07T18:14:23.800Z,24.56
2022-08-07T18:18:45.627Z,24.53
2022-08-07T18:21:08.707Z,24.49
2022-08-07T18:23:42.004Z,24.38
2022-08-07T18:26:05.328Z,24.42
2022-08-07T18:30:05.749Z,24.35
2022-08-07T18:32:20.887Z,24.27
2022-08-07T18:35:07.994Z,24.22
2022-08-07T18:38:56.911Z,24.18
2022-08-07T18:41:17.061Z,24.13
2022-08-07T18:44:03.560Z,24.09
2022-08-07T18:47:21.192Z,24.03
2022-08-07T18:50:32.679Z,23.98
2022-08-07T18:53:06.155Z,23.92
2022-08-07T18:55:55.752Z,23.91
2022-08-07T18:58:33.714Z,23.88
2022-08-07T19:02:18.810Z,23.83
2022-08-07T19:04:38.826Z,23.86
2022-08-07T19:07:34.641Z,23.87
2022-08-07T19:10:21.777Z,23.83
2022-08-07T19:13:23.259Z,23.81
2022-08-07T19:17:05.513Z,23.75
2022-08-07T19:19:26.747Z,23.70
2022-08-07T19:22:19.369Z,23.67
2022-08-07T19:24:59.000Z,23.65
2022-08-07T19:28:57.147Z,23.63
2022-08-07T19:30:55.625Z,23.64
2022-08-07T19:33:15.832Z,23.63
2022-08-07T19:35:53.970Z,23.61
2022-08-07T19:38:23.748Z,23.60
2022-08-07T19:40:59.404Z,23.57
2022-08-07T19:43:50.123Z,23.53
2022-08-07T19:46:26.859Z,23.52
2022-08-07T19:49:57.600Z,23.48
2022-08-07T19:52:18.199Z,23.42
2022-08-07T19:54:56.176Z,23.35
2022-08-07T19:58:02.754Z,23.30
2022-08-07T20:00:29.655Z,23.23
2022-08-07T20:03:03.295Z,23.23
2022-08-07T20:05:59.820Z,23.23
2022-08-07T20:08:24.654Z,23.25
2022-08-07T20:11:10.312Z,23.21
2022-08-07T20:13:52.720Z,23.19
2022-08-07T20:16:35.292Z,23.17
2022-08-07T20:19:11.650Z,23.09
2022-08-07T20:21:47.486Z,23.04
2022-08-07T20:24:30.565Z,23.03
2022-08-07T20:27:00.016Z,23.00
2022-08-07T20:29:48.274Z,22.98
2022-08-07T20:32:25.509Z,22.91
2022-08-07T20:34:57.694Z,22.89
2022-08-07T20:37:29.779Z,22.80
2022-08-07T20:40:02.774Z,22.78
2022-08-07T20:42:33.511Z,22.76
2022-08-07T20:45:01.695Z,22.71
2022-08-07T20:47:55.231Z,22.72
2022-08-07T20:50:22.586Z,22.67
2022-08-07T20:52:51.578Z,22.62
2022-08-07T20:55:23.810Z,22.60
2022-08-07T20:58:02.864Z,22.56
2022-08-07T21:00:43.586Z,22.55
2022-08-07T21:03:19.156Z,22.52
2022-08-07T21:06:25.780Z,22.52
2022-08-07T21:09:02.135Z,22.54
2022-08-07T21:11:40.101Z,22.52
2022-08-07T21:14:33.016Z,22.42
2022-08-07T21:18:09.102Z,22.39
2022-08-07T21:20:05.198Z,22.37
2022-08-07T21:22:45.077Z,22.37
2022-08-07T21:25:22.951Z,22.34
2022-08-07T21:27:55.666Z,22.29
2022-08-07T21:31:08.178Z,22.21
2022-08-07T21:33:48.502Z,22.18
2022-08-07T21:36:31.915Z,22.21
2022-08-07T21:39:47.934Z,22.19
2022-08-07T21:42:37.620Z,22.15
2022-08-07T21:46:09.280Z,22.11
2022-08-07T21:48:43.910Z,22.12
2022-08-07T21:51:24.919Z,22.08
2022-08-07T21:54:01.350Z,22.03
2022-08-07T21:56:49.093Z,22.08
2022-08-07T21:59:28.512Z,22.08
2022-08-07T22:02:13.138Z,22.02
2022-08-07T22:04:53.438Z,22.01
2022-08-07T22:07:31.420Z,22.03
2022-08-07T22:10:07.169Z,21.98
2022-08-07T22:12:37.641Z,21.98
2022-08-07T22:16:39.686Z,21.96
2022-08-07T22:18:12.007Z,21.95
2022-08-07T22:20:54.170Z,21.94
2022-08-07T22:23:26.555Z,21.94
2022-08-07T22:26:02.706Z,21.92
2022-08-07T22:28:42.829Z,21.93
2022-08-07T22:31:59.576Z,21.92
2022-08-07T22:34:29.186Z,21.91
2022-08-07T22:38:04.225Z,21.79
2022-08-07T22:40:33.339Z,21.76
2022-08-07T22:43:11.823Z,21.76
2022-08-07T22:46:21.459Z,21.76
2022-08-07T22:48:55.740Z,21.70
2022-08-07T22:51:54.441Z,21.74
2022-08-07T22:54:55.483Z,21.75
2022-08-07T22:58:04.485Z,21.65
2022-08-07T23:01:11.138Z,21.68
2022-08-07T23:04:00.978Z,21.61
2022-08-07T23:07:25.922Z,21.63
2022-08-07T23:10:38.429Z,21.54
2022-08-07T23:13:19.338Z,21.55
2022-08-07T23:16:44.862Z,21.52
2022-08-07T23:19:00.104Z,21.60
2022-08-07T23:21:30.281Z,21.58
2022-08-07T23:24:45.702Z,21.52
2022-08-07T23:27:33.513Z,21.47
2022-08-07T23:30:37.138Z,21.44
2022-08-07T23:34:34.649Z,21.36
2022-08-07T23:36:17.335Z,21.31
2022-08-07T23:39:11.667Z,21.29
2022-08-07T23:42:04.583Z,21.23
2022-08-07T23:44:47.572Z,21.19
2022-08-07T23:47:42.365Z,21.20
2022-08-07T23:50:35.550Z,21.19
2022-08-07T23:53:51.330Z,21.12
2022-08-07T23:56:26.702Z,21.10
